sensor_id;sensor_type;location;lat;lon;timestamp;temperature;humidity
65692;DHT22;52411;52.716;6.696;2022-11-11T00:01:03;10.20;99.90
65692;DHT22;52411;52.716;6.696;2022-11-11T00:03:29;10.20;99.90
65692;DHT22;52411;52.716;6.696;2022-11-11T00:06:00;10.30;99.90
65692;DHT22;52411;52.716;6.696;2022-11-11T00:08:26;10.30;99.90
65692;DHT22;52411;52.716;6.696;2022-11-11T00:10:51;10.40;99.90
65692;DHT22;52411;52.716;6.696;2022-11-11T00:13:17;10.40;99.90
65692;DHT22;52411;52.716;6.696;2022-11-11T00:15:42;10.40;99.90
65692;DHT22;52411;52.716;6.696;2022-11-11T00:18:11;10.50;99.90
65692;DHT22;52411;52.716;6.696;2022-11-11T00:20:58;10.50;99.90
65692;DHT22;52411;52.716;6.696;2022-11-11T00:23:42;10.50;99.90
65692;DHT22;52411;52.716;6.696;2022-11-11T00:26:26;10.50;99.90
65692;DHT22;52411;52.716;6.696;2022-11-11T00:28:53;10.50;99.90
65692;DHT22;52411;52.716;6.696;2022-11-11T00:31:18;10.50;99.90
65692;DHT22;52411;52.716;6.696;2022-11-11T00:33:44;10.50;99.90
65692;DHT22;52411;52.716;6.696;2022-11-11T00:36:09;10.50;99.90
65692;DHT22;52411;52.716;6.696;2022-11-11T00:38:35;10.50;99.90
65692;DHT22;52411;52.716;6.696;2022-11-11T00:41:20;10.40;99.90
65692;DHT22;52411;52.716;6.696;2022-11-11T00:43:46;10.40;99.90
65692;DHT22;52411;52.716;6.696;2022-11-11T00:46:15;10.40;99.90
65692;DHT22;52411;52.716;6.696;2022-11-11T00:49:07;10.40;99.90
65692;DHT22;52411;52.716;6.696;2022-11-11T00:51:52;10.40;99.90
65692;DHT22;52411;52.716;6.696;2022-11-11T00:54:17;10.30;99.90
65692;DHT22;52411;52.716;6.696;2022-11-11T00:56:43;10.40;99.90
65692;DHT22;52411;52.716;6.696;2022-11-11T00:59:08;10.30;99.90
65692;DHT22;52411;52.716;6.696;2022-11-11T01:01:36;10.30;99.90
65692;DHT22;52411;52.716;6.696;2022-11-11T01:04:01;10.30;99.90
65692;DHT22;52411;52.716;6.696;2022-11-11T01:06:27;10.30;99.90
65692;DHT22;52411;52.716;6.696;2022-11-11T01:08:53;10.20;99.90
65692;DHT22;52411;52.716;6.696;2022-11-11T01:11:21;10.20;99.90
65692;DHT22;52411;52.716;6.696;2022-11-11T01:13:48;10.10;99.90
65692;DHT22;52411;52.716;6.696;2022-11-11T01:16:19;10.00;99.90
65692;DHT22;52411;52.716;6.696;2022-11-11T01:18:46;9.90;99.90
65692;DHT22;52411;52.716;6.696;2022-11-11T01:21:14;9.90;99.90
65692;DHT22;52411;52.716;6.696;2022-11-11T01:23:41;9.90;99.90
65692;DHT22;52411;52.716;6.696;2022-11-11T01:26:12;9.80;99.90
65692;DHT22;52411;52.716;6.696;2022-11-11T01:28:38;9.70;99.90
65692;DHT22;52411;52.716;6.696;2022-11-11T01:31:09;9.70;99.90
65692;DHT22;52411;52.716;6.696;2022-11-11T01:33:35;9.80;99.90
65692;DHT22;52411;52.716;6.696;2022-11-11T01:36:06;9.80;99.90
65692;DHT22;52411;52.716;6.696;2022-11-11T01:38:32;9.70;99.90
65692;DHT22;52411;52.716;6.696;2022-11-11T01:40:58;9.70;99.90
65692;DHT22;52411;52.716;6.696;2022-11-11T01:43:24;9.80;99.90
65692;DHT22;52411;52.716;6.696;2022-11-11T01:45:59;9.70;99.90
65692;DHT22;52411;52.716;6.696;2022-11-11T01:51:36;9.70;99.90
65692;DHT22;52411;52.716;6.696;2022-11-11T01:54:09;9.70;99.90
65692;DHT22;52411;52.716;6.696;2022-11-11T01:56:38;9.70;99.90
65692;DHT22;52411;52.716;6.696;2022-11-11T01:59:11;9.70;99.90
65692;DHT22;52411;52.716;6.696;2022-11-11T02:01:38;9.70;99.90
65692;DHT22;52411;52.716;6.696;2022-11-11T02:04:05;9.60;99.90
65692;DHT22;52411;52.716;6.696;2022-11-11T02:06:53;9.70;99.90
65692;DHT22;52411;52.716;6.696;2022-11-11T02:09:22;9.70;99.90
65692;DHT22;52411;52.716;6.696;2022-11-11T02:11:49;9.70;99.90
65692;DHT22;52411;52.716;6.696;2022-11-11T02:14:39;9.70;99.90
65692;DHT22;52411;52.716;6.696;2022-11-11T02:17:12;9.70;99.90
65692;DHT22;52411;52.716;6.696;2022-11-11T02:25:05;9.70;99.90
65692;DHT22;52411;52.716;6.696;2022-11-11T02:27:34;9.70;99.90
65692;DHT22;52411;52.716;6.696;2022-11-11T02:30:01;9.70;99.90
65692;DHT22;52411;52.716;6.696;2022-11-11T02:32:28;9.80;99.90
65692;DHT22;52411;52.716;6.696;2022-11-11T02:34:54;9.80;99.90
65692;DHT22;52411;52.716;6.696;2022-11-11T02:37:25;9.80;99.90
65692;DHT22;52411;52.716;6.696;2022-11-11T02:39:56;9.70;99.90
65692;DHT22;52411;52.716;6.696;2022-11-11T02:42:24;9.70;99.90
65692;DHT22;52411;52.716;6.696;2022-11-11T02:44:50;9.70;99.90
65692;DHT22;52411;52.716;6.696;2022-11-11T02:47:23;9.70;99.90
65692;DHT22;52411;52.716;6.696;2022-11-11T02:49:48;9.70;99.90
65692;DHT22;52411;52.716;6.696;2022-11-11T02:52:14;9.70;99.90
65692;DHT22;52411;52.716;6.696;2022-11-11T02:54:40;9.70;99.90
65692;DHT22;52411;52.716;6.696;2022-11-11T02:57:07;9.70;99.90
65692;DHT22;52411;52.716;6.696;2022-11-11T02:59:38;9.80;99.90
65692;DHT22;52411;52.716;6.696;2022-11-11T03:02:05;9.80;99.90
65692;DHT22;52411;52.716;6.696;2022-11-11T03:04:30;9.80;99.90
65692;DHT22;52411;52.716;6.696;2022-11-11T03:06:56;9.80;99.90
65692;DHT22;52411;52.716;6.696;2022-11-11T03:09:22;9.90;99.90
65692;DHT22;52411;52.716;6.696;2022-11-11T03:11:48;9.90;99.90
65692;DHT22;52411;52.716;6.696;2022-11-11T03:14:13;10.00;99.90
65692;DHT22;52411;52.716;6.696;2022-11-11T03:16:39;10.00;99.90
65692;DHT22;52411;52.716;6.696;2022-11-11T03:19:23;10.00;99.90
65692;DHT22;52411;52.716;6.696;2022-11-11T03:21:49;10.00;99.90
65692;DHT22;52411;52.716;6.696;2022-11-11T03:24:14;10.10;99.90
65692;DHT22;52411;52.716;6.696;2022-11-11T03:26:40;10.10;99.90
65692;DHT22;52411;52.716;6.696;2022-11-11T03:29:05;10.10;99.90
65692;DHT22;52411;52.716;6.696;2022-11-11T03:31:31;10.10;99.90
65692;DHT22;52411;52.716;6.696;2022-11-11T03:33:57;10.20;99.90
65692;DHT22;52411;52.716;6.696;2022-11-11T03:36:43;10.20;99.90
65692;DHT22;52411;52.716;6.696;2022-11-11T03:39:27;10.20;99.90
65692;DHT22;52411;52.716;6.696;2022-11-11T03:41:53;10.30;99.90
65692;DHT22;52411;52.716;6.696;2022-11-11T03:44:18;10.30;99.90
65692;DHT22;52411;52.716;6.696;2022-11-11T03:46:44;10.30;99.90
65692;DHT22;52411;52.716;6.696;2022-11-11T03:49:10;10.30;99.90
65692;DHT22;52411;52.716;6.696;2022-11-11T03:51:35;10.20;99.90
65692;DHT22;52411;52.716;6.696;2022-11-11T03:54:01;10.30;99.90
65692;DHT22;52411;52.716;6.696;2022-11-11T03:56:26;10.30;99.90
65692;DHT22;52411;52.716;6.696;2022-11-11T03:58:52;10.20;99.90
65692;DHT22;52411;52.716;6.696;2022-11-11T04:01:17;10.20;99.90
65692;DHT22;52411;52.716;6.696;2022-11-11T04:04:01;10.20;99.90
65692;DHT22;52411;52.716;6.696;2022-11-11T04:06:46;10.30;99.90
65692;DHT22;52411;52.716;6.696;2022-11-11T04:09:30;10.30;99.90
65692;DHT22;52411;52.716;6.696;2022-11-11T04:12:14;10.40;99.90
65692;DHT22;52411;52.716;6.696;2022-11-11T04:14:40;10.40;99.90
65692;DHT22;52411;52.716;6.696;2022-11-11T04:17:24;10.50;99.90
65692;DHT22;52411;52.716;6.696;2022-11-11T04:19:50;10.60;99.90
65692;DHT22;52411;52.716;6.696;2022-11-11T04:22:40;10.60;99.90
65692;DHT22;52411;52.716;6.696;2022-11-11T04:25:06;10.60;99.90
65692;DHT22;52411;52.716;6.696;2022-11-11T04:27:51;10.60;99.90
65692;DHT22;52411;52.716;6.696;2022-11-11T04:30:36;10.60;99.90
65692;DHT22;52411;52.716;6.696;2022-11-11T04:33:02;10.60;99.90
65692;DHT22;52411;52.716;6.696;2022-11-11T04:35:27;10.70;99.90
65692;DHT22;52411;52.716;6.696;2022-11-11T04:37:53;10.70;99.90
65692;DHT22;52411;52.716;6.696;2022-11-11T04:40:39;10.70;99.90
65692;DHT22;52411;52.716;6.696;2022-11-11T04:43:23;10.70;99.90
65692;DHT22;52411;52.716;6.696;2022-11-11T04:45:48;10.70;99.90
65692;DHT22;52411;52.716;6.696;2022-11-11T04:48:14;10.70;99.90
65692;DHT22;52411;52.716;6.696;2022-11-11T04:50:43;10.70;99.90
65692;DHT22;52411;52.716;6.696;2022-11-11T04:53:11;10.70;99.90
65692;DHT22;52411;52.716;6.696;2022-11-11T04:55:38;10.70;99.90
65692;DHT22;52411;52.716;6.696;2022-11-11T04:58:24;10.70;99.90
65692;DHT22;52411;52.716;6.696;2022-11-11T05:00:50;10.70;99.90
65692;DHT22;52411;52.716;6.696;2022-11-11T05:03:17;10.70;99.90
65692;DHT22;52411;52.716;6.696;2022-11-11T05:05:50;10.70;99.90
65692;DHT22;52411;52.716;6.696;2022-11-11T05:08:40;10.70;99.90
65692;DHT22;52411;52.716;6.696;2022-11-11T05:11:23;10.70;99.90
65692;DHT22;52411;52.716;6.696;2022-11-11T05:13:49;10.70;99.90
65692;DHT22;52411;52.716;6.696;2022-11-11T05:16:38;10.70;99.90
65692;DHT22;52411;52.716;6.696;2022-11-11T05:19:23;10.80;99.90
65692;DHT22;52411;52.716;6.696;2022-11-11T05:24:56;10.80;99.90
65692;DHT22;52411;52.716;6.696;2022-11-11T05:27:41;10.70;99.90
65692;DHT22;52411;52.716;6.696;2022-11-11T05:30:08;10.70;99.90
65692;DHT22;52411;52.716;6.696;2022-11-11T05:32:34;10.80;99.90
65692;DHT22;52411;52.716;6.696;2022-11-11T05:35:00;10.80;99.90
65692;DHT22;52411;52.716;6.696;2022-11-11T05:37:25;10.80;99.90
65692;DHT22;52411;52.716;6.696;2022-11-11T05:39:51;10.80;99.90
65692;DHT22;52411;52.716;6.696;2022-11-11T05:42:17;10.80;99.90
65692;DHT22;52411;52.716;6.696;2022-11-11T05:44:43;10.80;99.90
65692;DHT22;52411;52.716;6.696;2022-11-11T05:47:09;10.80;99.90
65692;DHT22;52411;52.716;6.696;2022-11-11T05:49:34;10.80;99.90
65692;DHT22;52411;52.716;6.696;2022-11-11T05:52:00;10.80;99.90
65692;DHT22;52411;52.716;6.696;2022-11-11T05:54:26;10.80;99.90
65692;DHT22;52411;52.716;6.696;2022-11-11T05:56:52;10.80;99.90
65692;DHT22;52411;52.716;6.696;2022-11-11T05:59:18;10.90;99.90
65692;DHT22;52411;52.716;6.696;2022-11-11T06:01:44;10.90;99.90
65692;DHT22;52411;52.716;6.696;2022-11-11T06:04:09;10.80;99.90
65692;DHT22;52411;52.716;6.696;2022-11-11T06:06:35;10.80;99.90
65692;DHT22;52411;52.716;6.696;2022-11-11T06:09:02;10.90;99.90
65692;DHT22;52411;52.716;6.696;2022-11-11T06:11:28;10.90;99.90
65692;DHT22;52411;52.716;6.696;2022-11-11T06:13:55;10.80;99.90
65692;DHT22;52411;52.716;6.696;2022-11-11T06:16:21;10.80;99.90
65692;DHT22;52411;52.716;6.696;2022-11-11T06:18:47;10.80;99.90
65692;DHT22;52411;52.716;6.696;2022-11-11T06:21:12;10.80;99.90
65692;DHT22;52411;52.716;6.696;2022-11-11T06:23:38;10.80;99.90
65692;DHT22;52411;52.716;6.696;2022-11-11T06:26:04;10.80;99.90
65692;DHT22;52411;52.716;6.696;2022-11-11T06:28:48;10.80;99.90
65692;DHT22;52411;52.716;6.696;2022-11-11T06:31:16;10.80;99.90
65692;DHT22;52411;52.716;6.696;2022-11-11T06:33:42;10.80;99.90
65692;DHT22;52411;52.716;6.696;2022-11-11T06:36:10;10.80;99.90
65692;DHT22;52411;52.716;6.696;2022-11-11T06:38:36;10.90;99.90
65692;DHT22;52411;52.716;6.696;2022-11-11T06:41:01;10.80;99.90
65692;DHT22;52411;52.716;6.696;2022-11-11T06:43:27;10.80;99.90
65692;DHT22;52411;52.716;6.696;2022-11-11T06:45:53;10.80;99.90
65692;DHT22;52411;52.716;6.696;2022-11-11T06:48:20;10.80;99.90
65692;DHT22;52411;52.716;6.696;2022-11-11T06:50:47;10.80;99.90
65692;DHT22;52411;52.716;6.696;2022-11-11T06:53:16;10.80;99.90
65692;DHT22;52411;52.716;6.696;2022-11-11T06:55:42;10.80;99.90
65692;DHT22;52411;52.716;6.696;2022-11-11T06:58:13;10.80;99.90
65692;DHT22;52411;52.716;6.696;2022-11-11T07:00:41;10.80;99.90
65692;DHT22;52411;52.716;6.696;2022-11-11T07:03:08;10.90;99.90
65692;DHT22;52411;52.716;6.696;2022-11-11T07:05:34;10.90;99.90
65692;DHT22;52411;52.716;6.696;2022-11-11T07:08:10;10.80;99.90
65692;DHT22;52411;52.716;6.696;2022-11-11T07:10:38;10.90;99.90
65692;DHT22;52411;52.716;6.696;2022-11-11T07:13:05;10.80;99.90
65692;DHT22;52411;52.716;6.696;2022-11-11T07:15:31;10.80;99.90
65692;DHT22;52411;52.716;6.696;2022-11-11T07:17:57;10.90;99.90
65692;DHT22;52411;52.716;6.696;2022-11-11T07:20:23;10.80;99.90
65692;DHT22;52411;52.716;6.696;2022-11-11T07:22:48;10.90;99.90
65692;DHT22;52411;52.716;6.696;2022-11-11T07:25:14;10.90;99.90
65692;DHT22;52411;52.716;6.696;2022-11-11T07:27:41;10.90;99.90
65692;DHT22;52411;52.716;6.696;2022-11-11T07:30:08;10.90;99.90
65692;DHT22;52411;52.716;6.696;2022-11-11T07:32:34;10.90;99.90
65692;DHT22;52411;52.716;6.696;2022-11-11T07:34:59;10.90;99.90
65692;DHT22;52411;52.716;6.696;2022-11-11T07:37:25;10.90;99.90
65692;DHT22;52411;52.716;6.696;2022-11-11T07:39:51;10.90;99.90
65692;DHT22;52411;52.716;6.696;2022-11-11T07:42:16;10.90;99.90
65692;DHT22;52411;52.716;6.696;2022-11-11T07:44:42;10.90;99.90
65692;DHT22;52411;52.716;6.696;2022-11-11T07:47:08;10.90;99.90
65692;DHT22;52411;52.716;6.696;2022-11-11T07:49:33;10.90;99.90
65692;DHT22;52411;52.716;6.696;2022-11-11T07:51:59;10.90;99.90
65692;DHT22;52411;52.716;6.696;2022-11-11T07:54:25;10.90;99.90
65692;DHT22;52411;52.716;6.696;2022-11-11T07:56:50;10.90;99.90
65692;DHT22;52411;52.716;6.696;2022-11-11T07:59:16;11.00;99.90
65692;DHT22;52411;52.716;6.696;2022-11-11T08:01:42;10.90;99.90
65692;DHT22;52411;52.716;6.696;2022-11-11T08:04:07;10.90;99.90
65692;DHT22;52411;52.716;6.696;2022-11-11T08:06:33;10.90;99.90
65692;DHT22;52411;52.716;6.696;2022-11-11T08:08:59;10.90;99.90
65692;DHT22;52411;52.716;6.696;2022-11-11T08:11:24;11.00;99.90
65692;DHT22;52411;52.716;6.696;2022-11-11T08:14:08;10.90;99.90
65692;DHT22;52411;52.716;6.696;2022-11-11T08:16:34;11.00;99.90
65692;DHT22;52411;52.716;6.696;2022-11-11T08:19:00;11.00;99.90
65692;DHT22;52411;52.716;6.696;2022-11-11T08:21:26;11.00;99.90
65692;DHT22;52411;52.716;6.696;2022-11-11T08:23:52;11.00;99.90
65692;DHT22;52411;52.716;6.696;2022-11-11T08:26:19;11.00;99.90
65692;DHT22;52411;52.716;6.696;2022-11-11T08:28:46;11.00;99.90
65692;DHT22;52411;52.716;6.696;2022-11-11T08:31:12;11.00;99.90
65692;DHT22;52411;52.716;6.696;2022-11-11T08:33:38;11.00;99.90
65692;DHT22;52411;52.716;6.696;2022-11-11T08:36:04;11.10;99.90
65692;DHT22;52411;52.716;6.696;2022-11-11T08:38:31;11.00;99.90
65692;DHT22;52411;52.716;6.696;2022-11-11T08:41:02;11.10;99.90
65692;DHT22;52411;52.716;6.696;2022-11-11T08:43:29;11.10;99.90
65692;DHT22;52411;52.716;6.696;2022-11-11T08:45:59;11.10;99.90
65692;DHT22;52411;52.716;6.696;2022-11-11T08:48:25;11.10;99.90
65692;DHT22;52411;52.716;6.696;2022-11-11T08:50:52;11.20;99.90
65692;DHT22;52411;52.716;6.696;2022-11-11T08:53:18;11.20;99.90
65692;DHT22;52411;52.716;6.696;2022-11-11T08:55:44;11.20;99.90
65692;DHT22;52411;52.716;6.696;2022-11-11T08:58:11;11.20;99.90
65692;DHT22;52411;52.716;6.696;2022-11-11T09:00:37;11.30;99.90
65692;DHT22;52411;52.716;6.696;2022-11-11T09:03:04;11.30;99.90
65692;DHT22;52411;52.716;6.696;2022-11-11T09:05:30;11.30;99.90
65692;DHT22;52411;52.716;6.696;2022-11-11T09:07:59;11.30;99.90
65692;DHT22;52411;52.716;6.696;2022-11-11T09:10:25;11.30;99.90
65692;DHT22;52411;52.716;6.696;2022-11-11T09:12:56;11.40;99.90
65692;DHT22;52411;52.716;6.696;2022-11-11T09:15:21;11.30;99.90
65692;DHT22;52411;52.716;6.696;2022-11-11T09:17:47;11.30;99.90
65692;DHT22;52411;52.716;6.696;2022-11-11T09:20:13;11.30;99.90
65692;DHT22;52411;52.716;6.696;2022-11-11T09:22:42;11.30;99.90
65692;DHT22;52411;52.716;6.696;2022-11-11T09:25:08;11.40;99.90
65692;DHT22;52411;52.716;6.696;2022-11-11T09:27:34;11.40;99.90
65692;DHT22;52411;52.716;6.696;2022-11-11T09:30:00;11.30;99.90
65692;DHT22;52411;52.716;6.696;2022-11-11T09:32:25;11.30;99.90
65692;DHT22;52411;52.716;6.696;2022-11-11T09:34:51;11.30;99.90
65692;DHT22;52411;52.716;6.696;2022-11-11T09:37:19;11.30;99.90
65692;DHT22;52411;52.716;6.696;2022-11-11T09:39:45;11.30;99.90
65692;DHT22;52411;52.716;6.696;2022-11-11T09:45:13;11.30;99.90
65692;DHT22;52411;52.716;6.696;2022-11-11T09:50:33;11.30;99.90
65692;DHT22;52411;52.716;6.696;2022-11-11T09:53:10;11.30;99.90
65692;DHT22;52411;52.716;6.696;2022-11-11T09:58:29;11.10;99.90
65692;DHT22;52411;52.716;6.696;2022-11-11T10:01:11;11.20;99.90
65692;DHT22;52411;52.716;6.696;2022-11-11T10:03:43;11.10;99.90
65692;DHT22;52411;52.716;6.696;2022-11-11T10:06:20;11.10;99.90
65692;DHT22;52411;52.716;6.696;2022-11-11T10:08:58;11.10;99.90
65692;DHT22;52411;52.716;6.696;2022-11-11T10:14:01;11.00;99.90
65692;DHT22;52411;52.716;6.696;2022-11-11T10:16:39;11.10;99.90
65692;DHT22;52411;52.716;6.696;2022-11-11T10:19:32;11.10;99.90
65692;DHT22;52411;52.716;6.696;2022-11-11T10:22:01;11.00;99.90
65692;DHT22;52411;52.716;6.696;2022-11-11T10:24:41;11.00;99.90
65692;DHT22;52411;52.716;6.696;2022-11-11T10:27:18;11.00;99.90
65692;DHT22;52411;52.716;6.696;2022-11-11T10:29:44;11.10;99.90
65692;DHT22;52411;52.716;6.696;2022-11-11T10:34:47;11.00;99.90
65692;DHT22;52411;52.716;6.696;2022-11-11T10:37:18;11.00;99.90
65692;DHT22;52411;52.716;6.696;2022-11-11T10:42:31;11.20;99.90
65692;DHT22;52411;52.716;6.696;2022-11-11T10:45:01;11.10;99.90
65692;DHT22;52411;52.716;6.696;2022-11-11T10:47:53;11.20;99.90
65692;DHT22;52411;52.716;6.696;2022-11-11T10:56:01;11.50;99.90
65692;DHT22;52411;52.716;6.696;2022-11-11T10:58:36;11.50;99.90
65692;DHT22;52411;52.716;6.696;2022-11-11T11:01:06;11.70;99.90
65692;DHT22;52411;52.716;6.696;2022-11-11T11:03:35;11.80;99.90
65692;DHT22;52411;52.716;6.696;2022-11-11T11:06:21;11.80;99.90
65692;DHT22;52411;52.716;6.696;2022-11-11T11:08:51;11.80;99.90
65692;DHT22;52411;52.716;6.696;2022-11-11T11:11:27;11.90;99.90
65692;DHT22;52411;52.716;6.696;2022-11-11T11:13:59;11.90;99.90
65692;DHT22;52411;52.716;6.696;2022-11-11T11:16:26;11.90;99.90
65692;DHT22;52411;52.716;6.696;2022-11-11T11:24:28;12.00;99.90
65692;DHT22;52411;52.716;6.696;2022-11-11T11:27:24;12.00;99.90
65692;DHT22;52411;52.716;6.696;2022-11-11T11:29:50;12.10;99.90
65692;DHT22;52411;52.716;6.696;2022-11-11T11:32:20;12.20;99.90
65692;DHT22;52411;52.716;6.696;2022-11-11T11:34:51;12.20;99.90
65692;DHT22;52411;52.716;6.696;2022-11-11T11:37:19;12.20;99.90
65692;DHT22;52411;52.716;6.696;2022-11-11T11:39:45;12.20;99.90
65692;DHT22;52411;52.716;6.696;2022-11-11T11:42:27;12.20;99.90
65692;DHT22;52411;52.716;6.696;2022-11-11T11:44:54;12.20;99.90
65692;DHT22;52411;52.716;6.696;2022-11-11T11:52:48;12.30;99.90
65692;DHT22;52411;52.716;6.696;2022-11-11T11:55:24;12.30;99.90
65692;DHT22;52411;52.716;6.696;2022-11-11T12:00:29;12.30;99.90
65692;DHT22;52411;52.716;6.696;2022-11-11T12:12:43;12.40;99.90
65692;DHT22;52411;52.716;6.696;2022-11-11T12:17:32;12.70;99.90
65692;DHT22;52411;52.716;6.696;2022-11-11T12:20:16;12.70;99.90
65692;DHT22;52411;52.716;6.696;2022-11-11T12:25:55;12.90;99.90
65692;DHT22;52411;52.716;6.696;2022-11-11T12:36:35;12.80;99.90
65692;DHT22;52411;52.716;6.696;2022-11-11T12:44:53;12.70;99.90
65692;DHT22;52411;52.716;6.696;2022-11-11T12:47:51;12.60;99.90
65692;DHT22;52411;52.716;6.696;2022-11-11T12:58:37;12.60;99.90
65692;DHT22;52411;52.716;6.696;2022-11-11T13:17:33;12.70;99.90
65692;DHT22;52411;52.716;6.696;2022-11-11T13:20:04;12.80;99.90
65692;DHT22;52411;52.716;6.696;2022-11-11T13:22:32;12.70;99.90
65692;DHT22;52411;52.716;6.696;2022-11-11T13:25:02;12.70;99.90
65692;DHT22;52411;52.716;6.696;2022-11-11T13:33:12;12.70;99.90
65692;DHT22;52411;52.716;6.696;2022-11-11T13:35:47;12.70;99.90
65692;DHT22;52411;52.716;6.696;2022-11-11T13:41:27;12.80;99.90
65692;DHT22;52411;52.716;6.696;2022-11-11T13:43:54;12.90;99.90
65692;DHT22;52411;52.716;6.696;2022-11-11T13:46:31;12.90;99.90
65692;DHT22;52411;52.716;6.696;2022-11-11T13:48:58;12.90;99.90
65692;DHT22;52411;52.716;6.696;2022-11-11T13:51:41;13.00;99.90
65692;DHT22;52411;52.716;6.696;2022-11-11T13:54:23;13.00;99.90
65692;DHT22;52411;52.716;6.696;2022-11-11T13:56:51;13.10;99.90
65692;DHT22;52411;52.716;6.696;2022-11-11T13:59:24;13.10;99.90
65692;DHT22;52411;52.716;6.696;2022-11-11T14:02:24;13.10;99.90
65692;DHT22;52411;52.716;6.696;2022-11-11T14:12:53;13.20;99.90
65692;DHT22;52411;52.716;6.696;2022-11-11T14:15:39;13.20;99.90
65692;DHT22;52411;52.716;6.696;2022-11-11T14:20:45;13.30;99.90
65692;DHT22;52411;52.716;6.696;2022-11-11T14:25:47;13.30;99.90
65692;DHT22;52411;52.716;6.696;2022-11-11T14:28:28;13.30;99.90
65692;DHT22;52411;52.716;6.696;2022-11-11T14:30:58;13.20;99.90
65692;DHT22;52411;52.716;6.696;2022-11-11T14:45:01;13.20;99.90
65692;DHT22;52411;52.716;6.696;2022-11-11T14:47:35;13.10;99.90
65692;DHT22;52411;52.716;6.696;2022-11-11T14:50:02;13.00;99.90
65692;DHT22;52411;52.716;6.696;2022-11-11T14:52:41;12.90;99.90
65692;DHT22;52411;52.716;6.696;2022-11-11T14:55:29;12.80;99.90
65692;DHT22;52411;52.716;6.696;2022-11-11T15:00:49;12.50;99.90
65692;DHT22;52411;52.716;6.696;2022-11-11T15:03:34;12.30;99.90
65692;DHT22;52411;52.716;6.696;2022-11-11T15:06:04;12.20;99.90
65692;DHT22;52411;52.716;6.696;2022-11-11T15:11:50;12.10;99.90
65692;DHT22;52411;52.716;6.696;2022-11-11T15:17:12;11.90;99.90
65692;DHT22;52411;52.716;6.696;2022-11-11T15:19:58;11.80;99.90
65692;DHT22;52411;52.716;6.696;2022-11-11T15:22:42;11.70;99.90
65692;DHT22;52411;52.716;6.696;2022-11-11T15:25:33;11.60;99.90
65692;DHT22;52411;52.716;6.696;2022-11-11T15:34:02;11.30;99.90
65692;DHT22;52411;52.716;6.696;2022-11-11T15:37:17;11.20;99.90
65692;DHT22;52411;52.716;6.696;2022-11-11T15:39:45;11.10;99.90
65692;DHT22;52411;52.716;6.696;2022-11-11T15:42:28;11.00;99.90
65692;DHT22;52411;52.716;6.696;2022-11-11T15:44:55;11.00;99.90
65692;DHT22;52411;52.716;6.696;2022-11-11T15:47:21;11.00;99.90
65692;DHT22;52411;52.716;6.696;2022-11-11T15:49:48;10.90;99.90
65692;DHT22;52411;52.716;6.696;2022-11-11T15:54:52;10.80;99.90
65692;DHT22;52411;52.716;6.696;2022-11-11T15:59:54;10.70;99.90
65692;DHT22;52411;52.716;6.696;2022-11-11T16:02:25;10.60;99.90
65692;DHT22;52411;52.716;6.696;2022-11-11T16:05:06;10.60;99.90
65692;DHT22;52411;52.716;6.696;2022-11-11T16:07:43;10.50;99.90
65692;DHT22;52411;52.716;6.696;2022-11-11T16:10:17;10.40;99.90
65692;DHT22;52411;52.716;6.696;2022-11-11T16:12:52;10.40;99.90
65692;DHT22;52411;52.716;6.696;2022-11-11T16:15:50;10.30;99.90
65692;DHT22;52411;52.716;6.696;2022-11-11T16:18:23;10.20;99.90
65692;DHT22;52411;52.716;6.696;2022-11-11T16:20:56;10.20;99.90
65692;DHT22;52411;52.716;6.696;2022-11-11T16:23:24;10.10;99.90
65692;DHT22;52411;52.716;6.696;2022-11-11T16:25:51;10.00;99.90
65692;DHT22;52411;52.716;6.696;2022-11-11T16:28:17;9.90;99.90
65692;DHT22;52411;52.716;6.696;2022-11-11T16:30:43;9.80;99.90
65692;DHT22;52411;52.716;6.696;2022-11-11T16:33:38;9.80;99.90
65692;DHT22;52411;52.716;6.696;2022-11-11T16:36:10;9.70;99.90
65692;DHT22;52411;52.716;6.696;2022-11-11T16:38:36;9.70;99.90
65692;DHT22;52411;52.716;6.696;2022-11-11T16:41:23;9.70;99.90
65692;DHT22;52411;52.716;6.696;2022-11-11T16:43:49;9.70;99.90
65692;DHT22;52411;52.716;6.696;2022-11-11T16:52:17;9.60;99.90
65692;DHT22;52411;52.716;6.696;2022-11-11T16:54:54;9.50;99.90
65692;DHT22;52411;52.716;6.696;2022-11-11T16:57:28;9.50;99.90
65692;DHT22;52411;52.716;6.696;2022-11-11T16:59:58;9.50;99.90
65692;DHT22;52411;52.716;6.696;2022-11-11T17:02:26;9.40;99.90
65692;DHT22;52411;52.716;6.696;2022-11-11T17:04:54;9.40;99.90
65692;DHT22;52411;52.716;6.696;2022-11-11T17:07:32;9.30;99.90
65692;DHT22;52411;52.716;6.696;2022-11-11T17:10:19;9.20;99.90
65692;DHT22;52411;52.716;6.696;2022-11-11T17:12:45;9.20;99.90
65692;DHT22;52411;52.716;6.696;2022-11-11T17:15:13;9.20;99.90
65692;DHT22;52411;52.716;6.696;2022-11-11T17:17:41;9.20;99.90
65692;DHT22;52411;52.716;6.696;2022-11-11T17:22:35;9.10;99.90
65692;DHT22;52411;52.716;6.696;2022-11-11T17:25:01;9.10;99.90
65692;DHT22;52411;52.716;6.696;2022-11-11T17:27:30;9.00;99.90
65692;DHT22;52411;52.716;6.696;2022-11-11T17:29:56;9.10;99.90
65692;DHT22;52411;52.716;6.696;2022-11-11T17:32:22;9.00;99.90
65692;DHT22;52411;52.716;6.696;2022-11-11T17:34:48;9.00;99.90
65692;DHT22;52411;52.716;6.696;2022-11-11T17:37:13;9.00;99.90
65692;DHT22;52411;52.716;6.696;2022-11-11T17:39:39;9.00;99.90
65692;DHT22;52411;52.716;6.696;2022-11-11T17:42:07;8.90;99.90
65692;DHT22;52411;52.716;6.696;2022-11-11T17:44:33;8.80;99.90
65692;DHT22;52411;52.716;6.696;2022-11-11T17:46:58;8.70;99.90
65692;DHT22;52411;52.716;6.696;2022-11-11T17:49:24;8.70;99.90
65692;DHT22;52411;52.716;6.696;2022-11-11T17:51:50;8.70;99.90
65692;DHT22;52411;52.716;6.696;2022-11-11T17:54:15;8.70;99.90
65692;DHT22;52411;52.716;6.696;2022-11-11T17:56:41;8.60;99.90
65692;DHT22;52411;52.716;6.696;2022-11-11T17:59:07;8.60;99.90
65692;DHT22;52411;52.716;6.696;2022-11-11T18:01:33;8.60;99.90
65692;DHT22;52411;52.716;6.696;2022-11-11T18:03:59;8.50;99.90
65692;DHT22;52411;52.716;6.696;2022-11-11T18:06:24;8.50;99.90
65692;DHT22;52411;52.716;6.696;2022-11-11T18:08:51;8.50;99.90
65692;DHT22;52411;52.716;6.696;2022-11-11T18:11:17;8.50;99.90
65692;DHT22;52411;52.716;6.696;2022-11-11T18:13:43;8.40;99.90
65692;DHT22;52411;52.716;6.696;2022-11-11T18:16:16;8.40;99.90
65692;DHT22;52411;52.716;6.696;2022-11-11T18:18:42;8.30;99.90
65692;DHT22;52411;52.716;6.696;2022-11-11T18:21:07;8.30;99.90
65692;DHT22;52411;52.716;6.696;2022-11-11T18:23:35;8.20;99.90
65692;DHT22;52411;52.716;6.696;2022-11-11T18:26:01;8.10;99.90
65692;DHT22;52411;52.716;6.696;2022-11-11T18:28:35;8.00;99.90
65692;DHT22;52411;52.716;6.696;2022-11-11T18:31:08;7.90;99.90
65692;DHT22;52411;52.716;6.696;2022-11-11T18:33:34;7.90;99.90
65692;DHT22;52411;52.716;6.696;2022-11-11T18:36:08;8.00;99.90
65692;DHT22;52411;52.716;6.696;2022-11-11T18:38:35;8.10;99.90